createdAt,value
2022-09-02T00:01:49.301Z,2.30
2022-09-02T00:04:23.205Z,2.17
2022-09-02T00:06:54.282Z,2.53
2022-09-02T00:09:25.991Z,2.28
2022-09-02T00:11:58.048Z,2.97
2022-09-02T00:14:35.488Z,2.33
2022-09-02T00:17:04.691Z,2.53
2022-09-02T00:19:34.051Z,2.70
2022-09-02T00:22:02.745Z,2.30
2022-09-02T00:24:32.175Z,2.33
2022-09-02T00:27:01.105Z,2.20
2022-09-02T00:29:30.541Z,2.20
2022-09-02T00:31:59.309Z,1.92
2022-09-02T00:34:27.617Z,2.10
2022-09-02T00:36:56.034Z,2.22
2022-09-02T00:39:24.428Z,2.30
2022-09-02T00:41:52.761Z,2.33
2022-09-02T00:44:22.762Z,2.00
2022-09-02T00:49:32.802Z,2.47
2022-09-02T00:52:37.499Z,2.28
2022-09-02T00:55:16.440Z,2.38
2022-09-02T00:58:21.746Z,2.25
2022-09-02T01:00:57.929Z,2.30
2022-09-02T01:03:35.370Z,2.30
2022-09-02T01:06:04.493Z,2.05
2022-09-02T01:08:38.608Z,2.47
2022-09-02T01:11:08.366Z,2.47
2022-09-02T01:13:43.100Z,2.38
2022-09-02T01:16:28.341Z,2.45
2022-09-02T01:19:00.820Z,2.72
2022-09-02T01:21:29.193Z,2.20
2022-09-02T01:23:57.629Z,2.55
2022-09-02T01:26:25.572Z,2.17
2022-09-02T01:28:56.836Z,2.40
2022-09-02T01:31:25.466Z,2.38
2022-09-02T01:33:56.283Z,2.50
2022-09-02T01:36:25.322Z,2.38
2022-09-02T01:38:53.656Z,2.28
2022-09-02T01:41:22.303Z,2.50
2022-09-02T01:43:51.425Z,2.45
2022-09-02T01:46:20.499Z,2.25
2022-09-02T01:48:49.063Z,2.20
2022-09-02T01:51:20.674Z,2.50
2022-09-02T01:53:49.226Z,2.40
2022-09-02T01:56:17.934Z,2.47
2022-09-02T01:58:46.195Z,2.60
2022-09-02T02:01:14.867Z,2.22
2022-09-02T02:03:44.444Z,2.30
2022-09-02T02:06:17.431Z,2.40
2022-09-02T02:08:47.432Z,2.45
2022-09-02T02:11:27.104Z,2.40
2022-09-02T02:14:00.101Z,2.25
2022-09-02T02:16:29.302Z,2.33
2022-09-02T02:18:59.087Z,2.70
2022-09-02T02:21:28.173Z,2.75
2022-09-02T02:24:00.635Z,2.40
2022-09-02T02:26:33.008Z,2.50
2022-09-02T02:29:13.581Z,2.63
2022-09-02T02:31:43.333Z,2.58
2022-09-02T02:34:13.921Z,2.50
2022-09-02T02:36:45.794Z,2.45
2022-09-02T02:39:15.497Z,2.45
2022-09-02T02:41:47.063Z,2.50
2022-09-02T02:44:17.687Z,3.20
2022-09-02T02:46:47.327Z,2.40
2022-09-02T02:49:18.535Z,2.67
2022-09-02T02:51:48.756Z,2.35
2022-09-02T02:54:17.936Z,2.38
2022-09-02T02:56:47.156Z,2.58
2022-09-02T02:59:17.558Z,2.40
2022-09-02T03:01:46.977Z,2.50
2022-09-02T03:04:16.972Z,2.88
2022-09-02T03:06:46.271Z,2.47
2022-09-02T03:09:15.592Z,2.60
2022-09-02T03:11:45.797Z,2.58
2022-09-02T03:14:17.250Z,2.63
2022-09-02T03:16:49.017Z,2.72
2022-09-02T03:19:19.115Z,2.85
2022-09-02T03:21:48.107Z,2.50
2022-09-02T03:24:18.756Z,2.80
2022-09-02T03:26:48.962Z,2.63
2022-09-02T03:29:19.796Z,2.83
2022-09-02T03:31:49.217Z,2.80
2022-09-02T03:34:19.848Z,2.67
2022-09-02T03:36:48.735Z,2.70
2022-09-02T03:39:18.937Z,2.70
2022-09-02T03:41:51.101Z,2.60
2022-09-02T03:44:20.099Z,2.60
2022-09-02T03:46:50.935Z,2.70
2022-09-02T03:49:20.346Z,3.15
2022-09-02T03:51:51.418Z,2.55
2022-09-02T03:54:20.071Z,2.50
2022-09-02T03:56:49.775Z,2.53
2022-09-02T03:59:20.303Z,2.78
2022-09-02T04:01:50.080Z,2.63
2022-09-02T04:04:22.947Z,2.50
2022-09-02T04:06:53.723Z,2.70
2022-09-02T04:11:54.591Z,2.60
2022-09-02T04:14:23.999Z,2.83
2022-09-02T04:18:07.918Z,2.60
2022-09-02T04:21:19.918Z,2.45
2022-09-02T04:23:49.124Z,2.67
2022-09-02T04:26:21.911Z,2.50
2022-09-02T04:28:56.520Z,2.60
2022-09-02T04:31:27.617Z,2.60
2022-09-02T04:33:57.269Z,2.65
2022-09-02T04:36:29.124Z,2.50
2022-09-02T04:39:03.353Z,2.15
2022-09-02T04:41:37.159Z,2.65
2022-09-02T04:44:11.883Z,2.63
2022-09-02T04:46:43.981Z,2.70
2022-09-02T04:49:17.965Z,2.40
2022-09-02T04:51:47.775Z,2.80
2022-09-02T04:54:17.670Z,2.38
2022-09-02T04:56:51.993Z,2.15
2022-09-02T04:59:23.656Z,2.40
2022-09-02T05:02:06.073Z,2.40
2022-09-02T05:04:36.291Z,2.15
2022-09-02T05:07:08.757Z,2.40
2022-09-02T05:09:44.498Z,2.40
2022-09-02T05:12:14.313Z,2.72
2022-09-02T05:14:49.865Z,2.40
2022-09-02T05:17:21.313Z,2.65
2022-09-02T05:19:50.393Z,2.10
2022-09-02T05:22:23.905Z,2.30
2022-09-02T05:25:01.485Z,2.65
2022-09-02T05:30:24.679Z,2.40
2022-09-02T05:33:02.362Z,2.50
2022-09-02T05:35:33.800Z,2.30
2022-09-02T05:38:06.683Z,2.50
2022-09-02T05:40:39.808Z,2.25
2022-09-02T05:43:10.513Z,2.20
2022-09-02T05:45:40.998Z,2.40
2022-09-02T05:48:29.087Z,2.20
2022-09-02T05:51:05.028Z,2.38
2022-09-02T05:53:35.359Z,2.72
2022-09-02T05:56:08.359Z,2.58
2022-09-02T05:58:37.541Z,2.70
2022-09-02T06:01:14.203Z,2.70
2022-09-02T06:03:42.887Z,2.42
2022-09-02T06:06:11.886Z,2.63
2022-09-02T06:08:43.738Z,2.70
2022-09-02T06:11:13.861Z,2.33
2022-09-02T06:13:44.291Z,2.58
2022-09-02T06:16:19.786Z,2.60
2022-09-02T06:18:51.080Z,2.35
2022-09-02T06:21:21.402Z,2.38
2022-09-02T06:23:53.568Z,2.17
2022-09-02T06:26:44.166Z,2.40
2022-09-02T06:29:32.618Z,2.38
2022-09-02T06:32:02.319Z,2.20
2022-09-02T06:34:31.117Z,1.98
2022-09-02T06:36:59.488Z,2.30
2022-09-02T06:39:29.508Z,2.47
2022-09-02T06:42:00.130Z,2.30
2022-09-02T06:44:32.682Z,2.30
2022-09-02T06:47:02.417Z,2.45
2022-09-02T06:49:31.210Z,2.13
2022-09-02T06:52:01.627Z,1.90
2022-09-02T06:54:35.230Z,1.88
2022-09-02T06:57:14.163Z,1.80
2022-09-02T06:59:43.044Z,1.50
2022-09-02T07:02:11.833Z,1.80
2022-09-02T07:05:00.895Z,1.50
2022-09-02T07:07:31.111Z,1.65
2022-09-02T07:10:10.548Z,1.90
2022-09-02T07:12:44.323Z,1.58
2022-09-02T07:15:18.362Z,1.75
2022-09-02T07:17:49.844Z,1.95
2022-09-02T07:20:35.598Z,1.60
2022-09-02T07:23:06.540Z,1.60
2022-09-02T07:25:41.882Z,1.60
2022-09-02T07:28:13.225Z,1.88
2022-09-02T07:30:44.847Z,1.73
2022-09-02T07:33:17.164Z,1.30
2022-09-02T07:35:47.484Z,1.60
2022-09-02T07:38:19.449Z,1.60
2022-09-02T07:40:50.988Z,1.60
2022-09-02T07:43:29.832Z,1.70
2022-09-02T07:48:33.451Z,1.42
2022-09-02T07:51:04.796Z,1.50
2022-09-02T07:53:36.645Z,1.38
2022-09-02T07:56:06.152Z,1.30
2022-09-02T07:58:35.960Z,1.48
2022-09-02T08:03:36.087Z,1.77
2022-09-02T08:06:05.488Z,1.40
2022-09-02T08:08:34.784Z,1.40
2022-09-02T08:11:05.239Z,1.25
2022-09-02T08:13:36.085Z,1.35
2022-09-02T08:18:36.186Z,1.30
2022-09-02T08:21:06.091Z,1.08
2022-09-02T08:23:37.659Z,1.20
2022-09-02T08:26:07.867Z,1.10
2022-09-02T08:28:36.980Z,1.30
2022-09-02T08:31:07.898Z,1.30
2022-09-02T08:33:36.804Z,1.25
2022-09-02T08:36:12.031Z,1.48
2022-09-02T08:38:42.369Z,1.17
2022-09-02T08:41:30.186Z,1.00
2022-09-02T08:44:05.430Z,1.20
2022-09-02T08:46:36.145Z,1.30
2022-09-02T08:49:11.379Z,1.25
2022-09-02T08:52:01.174Z,1.20
2022-09-02T08:54:41.620Z,1.10
2022-09-02T08:57:11.943Z,1.10
2022-09-02T09:02:22.713Z,1.23
2022-09-02T09:05:19.979Z,1.10
2022-09-02T09:08:28.807Z,1.10
2022-09-02T09:11:06.090Z,0.90
2022-09-02T09:14:02.935Z,1.10
2022-09-02T09:17:22.409Z,1.00
2022-09-02T09:20:01.234Z,1.17
2022-09-02T09:22:39.036Z,1.00
2022-09-02T09:25:15.908Z,0.90
2022-09-02T09:27:46.642Z,0.80
2022-09-02T09:30:16.763Z,1.20
2022-09-02T09:32:52.924Z,1.10
2022-09-02T09:35:24.263Z,0.85
2022-09-02T09:37:57.046Z,1.20
2022-09-02T09:40:31.313Z,1.00
2022-09-02T09:43:21.142Z,1.10
2022-09-02T09:45:52.049Z,1.10
2022-09-02T09:50:58.261Z,0.90
2022-09-02T09:53:38.641Z,1.10
2022-09-02T09:56:16.521Z,1.05
2022-09-02T09:58:47.861Z,0.80
2022-09-02T10:01:24.295Z,1.00
2022-09-02T10:04:39.342Z,0.82
2022-09-02T10:07:05.115Z,0.90
2022-09-02T10:09:37.593Z,0.93
2022-09-02T10:12:14.565Z,0.80
2022-09-02T10:14:50.528Z,0.85
2022-09-02T10:17:48.814Z,0.80
2022-09-02T10:21:15.369Z,0.85
2022-09-02T10:24:09.326Z,1.00
2022-09-02T10:27:09.579Z,0.70
2022-09-02T10:29:56.479Z,0.73
2022-09-02T10:32:53.210Z,0.90
2022-09-02T10:35:36.746Z,0.80
2022-09-02T10:38:30.314Z,0.68
2022-09-02T10:41:31.829Z,0.88
2022-09-02T10:44:31.383Z,0.90
2022-09-02T10:47:36.202Z,0.77
2022-09-02T10:50:28.237Z,0.90
2022-09-02T10:53:09.860Z,0.80
2022-09-02T10:56:07.279Z,0.82
2022-09-02T10:59:03.834Z,0.90
2022-09-02T11:01:48.269Z,0.70
2022-09-02T11:04:32.731Z,0.80
2022-09-02T11:07:08.583Z,0.75
2022-09-02T11:10:06.340Z,0.60
2022-09-02T11:12:51.302Z,0.60
2022-09-02T11:15:36.054Z,0.90
2022-09-02T11:18:58.733Z,0.80
2022-09-02T11:22:44.437Z,0.80
2022-09-02T11:25:28.760Z,0.60
2022-09-02T11:28:31.843Z,0.60
2022-09-02T11:31:27.254Z,0.60
2022-09-02T11:34:16.615Z,0.60
2022-09-02T11:36:46.844Z,0.50
2022-09-02T11:39:56.302Z,0.60
2022-09-02T11:43:03.681Z,0.80
2022-09-02T11:46:11.858Z,0.60
2022-09-02T11:49:27.265Z,0.60
2022-09-02T11:52:41.936Z,0.60
2022-09-02T11:55:17.883Z,0.70
2022-09-02T11:57:57.526Z,0.55
2022-09-02T12:00:58.683Z,0.70
2022-09-02T12:04:03.415Z,0.63
2022-09-02T12:06:26.314Z,0.63
2022-09-02T12:09:04.247Z,0.70
2022-09-02T12:11:42.354Z,0.70
2022-09-02T12:14:27.936Z,0.73
2022-09-02T12:17:08.292Z,0.47
2022-09-02T12:19:41.812Z,0.60
2022-09-02T12:22:17.278Z,0.52
2022-09-02T12:24:56.465Z,0.55
2022-09-02T12:27:45.322Z,0.60
2022-09-02T12:31:08.990Z,0.60
2022-09-02T12:33:52.323Z,0.50
2022-09-02T12:36:42.105Z,0.65
2022-09-02T12:39:28.516Z,0.50
2022-09-02T12:42:07.632Z,0.57
2022-09-02T12:44:55.671Z,0.68
2022-09-02T12:48:08.496Z,0.55
2022-09-02T12:50:57.756Z,0.70
2022-09-02T12:53:42.620Z,0.70
2022-09-02T12:56:20.319Z,0.50
2022-09-02T12:58:59.038Z,0.70
2022-09-02T13:01:59.576Z,0.57
2022-09-02T13:05:35.834Z,0.50
2022-09-02T13:08:46.302Z,0.60
2022-09-02T13:11:41.301Z,1.00
2022-09-02T13:14:23.723Z,0.60
2022-09-02T13:17:25.931Z,0.60
2022-09-02T13:20:56.201Z,0.70
2022-09-02T13:23:54.488Z,0.70
2022-09-02T13:26:52.045Z,0.63
2022-09-02T13:29:58.932Z,0.60
2022-09-02T13:32:31.198Z,0.50
2022-09-02T13:35:07.047Z,0.45
2022-09-02T13:37:41.309Z,0.60
2022-09-02T13:40:36.476Z,0.60
2022-09-02T13:43:21.126Z,0.52
2022-09-02T13:45:52.575Z,0.60
2022-09-02T13:48:31.295Z,0.70
2022-09-02T13:51:17.899Z,0.70
2022-09-02T13:54:21.702Z,0.47
2022-09-02T13:56:40.365Z,0.50
2022-09-02T13:59:10.679Z,0.70
2022-09-02T14:01:42.535Z,0.60
2022-09-02T14:04:15.790Z,0.70
2022-09-02T14:06:48.741Z,0.50
2022-09-02T14:09:27.338Z,0.57
2022-09-02T14:11:56.939Z,0.50
2022-09-02T14:17:26.760Z,0.50
2022-09-02T14:20:20.139Z,0.60
2022-09-02T14:23:00.430Z,0.50
2022-09-02T14:25:55.707Z,0.60
2022-09-02T14:28:29.971Z,0.60
2022-09-02T14:31:25.045Z,0.80
2022-09-02T14:33:53.704Z,0.60
2022-09-02T14:36:36.948Z,0.40
2022-09-02T14:39:19.194Z,0.50
2022-09-02T14:41:57.048Z,0.60
2022-09-02T14:44:34.453Z,0.55
2022-09-02T14:47:07.402Z,0.50
2022-09-02T14:49:55.640Z,0.52
2022-09-02T14:52:37.535Z,0.60
2022-09-02T14:55:07.048Z,0.52
2022-09-02T14:57:39.512Z,0.60
2022-09-02T15:00:15.059Z,0.55
2022-09-02T15:02:49.373Z,0.50
2022-09-02T15:05:18.523Z,0.63
2022-09-02T15:07:48.494Z,0.50
2022-09-02T15:10:18.402Z,0.40
2022-09-02T15:12:57.834Z,0.63
2022-09-02T15:15:28.188Z,0.50
2022-09-02T15:17:56.950Z,0.55
2022-09-02T15:20:26.757Z,0.50
2022-09-02T15:22:57.905Z,0.65
2022-09-02T15:25:26.683Z,0.60
2022-09-02T15:27:56.702Z,0.40
2022-09-02T15:30:25.464Z,0.90
2022-09-02T15:32:54.174Z,0.52
2022-09-02T15:37:56.170Z,0.40
2022-09-02T15:40:24.732Z,0.40
2022-09-02T15:42:53.723Z,0.40
2022-09-02T15:45:23.023Z,0.50
2022-09-02T15:47:51.815Z,0.60
2022-09-02T15:50:20.904Z,0.50
2022-09-02T15:52:49.385Z,0.70
2022-09-02T15:55:18.175Z,0.50
2022-09-02T15:57:47.588Z,0.80
2022-09-02T16:00:16.883Z,0.50
2022-09-02T16:02:46.146Z,0.55
2022-09-02T16:05:16.084Z,0.50
2022-09-02T16:07:46.213Z,0.70
2022-09-02T16:10:15.403Z,0.55
2022-09-02T16:12:46.161Z,0.60
2022-09-02T16:15:15.123Z,0.52
2022-09-02T16:17:45.752Z,0.60
2022-09-02T16:20:20.495Z,0.50
2022-09-02T16:22:50.207Z,0.50
2022-09-02T16:25:19.388Z,0.73
2022-09-02T16:27:55.881Z,0.60
2022-09-02T16:30:27.410Z,0.60
2022-09-02T16:32:55.989Z,0.50
2022-09-02T16:35:24.885Z,0.50
2022-09-02T16:37:57.252Z,0.60
2022-09-02T16:40:26.747Z,0.60
2022-09-02T16:42:56.968Z,0.50
2022-09-02T16:45:26.676Z,0.52
2022-09-02T16:47:55.464Z,0.57
2022-09-02T16:50:25.172Z,0.50
2022-09-02T16:52:56.229Z,0.52
2022-09-02T16:55:25.000Z,0.70
2022-09-02T16:57:54.093Z,0.57
2022-09-02T17:00:24.127Z,0.70
2022-09-02T17:02:52.859Z,1.50
2022-09-02T17:05:22.093Z,0.75
2022-09-02T17:07:52.519Z,1.08
2022-09-02T17:10:21.305Z,1.20
2022-09-02T17:12:54.804Z,0.88
2022-09-02T17:15:26.661Z,0.75
2022-09-02T17:17:56.166Z,1.10
2022-09-02T17:20:25.364Z,1.10
2022-09-02T17:22:54.148Z,0.80
2022-09-02T17:25:24.983Z,0.57
2022-09-02T17:27:53.272Z,0.70
2022-09-02T17:30:23.408Z,0.60
2022-09-02T17:32:56.163Z,0.63
2022-09-02T17:35:25.978Z,0.68
2022-09-02T17:37:54.140Z,0.55
2022-09-02T17:40:41.976Z,0.82
2022-09-02T17:43:11.280Z,0.50
2022-09-02T17:45:39.485Z,0.60
2022-09-02T17:48:34.370Z,0.65
2022-09-02T17:50:56.577Z,0.70
2022-09-02T17:53:26.623Z,0.90
2022-09-02T17:56:12.182Z,0.95
2022-09-02T17:58:58.368Z,0.90
2022-09-02T18:01:32.135Z,0.90
2022-09-02T18:04:26.969Z,0.80
2022-09-02T18:07:11.537Z,0.90
2022-09-02T18:09:39.919Z,0.75
2022-09-02T18:12:09.211Z,0.63
2022-09-02T18:14:47.213Z,0.80
2022-09-02T18:17:46.820Z,0.90
2022-09-02T18:20:43.895Z,0.80
2022-09-02T18:23:49.121Z,0.98
2022-09-02T18:26:36.259Z,0.90
2022-09-02T18:29:30.629Z,0.90
2022-09-02T18:32:41.821Z,0.90
2022-09-02T18:35:46.123Z,0.80
2022-09-02T18:38:39.284Z,1.00
2022-09-02T18:41:23.220Z,1.10
2022-09-02T18:44:19.138Z,0.95
2022-09-02T18:47:25.933Z,0.82
2022-09-02T18:49:58.833Z,0.80
2022-09-02T18:52:28.529Z,0.95
2022-09-02T18:55:00.177Z,1.20
2022-09-02T18:57:37.030Z,1.05
2022-09-02T19:00:12.178Z,1.13
2022-09-02T19:03:02.697Z,1.15
2022-09-02T19:05:35.550Z,1.00
2022-09-02T19:08:26.993Z,1.08
2022-09-02T19:11:14.935Z,1.02
2022-09-02T19:13:50.866Z,1.08
2022-09-02T19:16:36.413Z,0.70
2022-09-02T19:19:07.275Z,1.00
2022-09-02T19:21:52.042Z,0.90
2022-09-02T19:24:29.322Z,0.80
2022-09-02T19:27:05.282Z,0.95
2022-09-02T19:34:17.403Z,1.33
2022-09-02T19:36:50.389Z,1.15
2022-09-02T19:39:19.219Z,1.10
2022-09-02T19:41:49.722Z,0.82
2022-09-02T19:44:18.178Z,1.00
2022-09-02T19:49:39.405Z,1.48
2022-09-02T19:52:09.114Z,0.98
2022-09-02T19:54:42.304Z,1.23
2022-09-02T19:57:11.193Z,0.93
2022-09-02T19:59:39.986Z,1.05
2022-09-02T20:02:09.224Z,0.98
2022-09-02T20:04:38.783Z,1.00
2022-09-02T20:07:07.568Z,1.00
2022-09-02T20:09:36.152Z,0.85
2022-09-02T20:12:05.147Z,0.93
2022-09-02T20:14:38.025Z,0.90
2022-09-02T20:17:18.592Z,1.00
2022-09-02T20:19:47.479Z,0.83
2022-09-02T20:22:18.033Z,0.80
2022-09-02T20:24:47.205Z,0.80
2022-09-02T20:27:35.567Z,0.85
2022-09-02T20:30:18.996Z,0.70
2022-09-02T20:32:50.221Z,0.77
2022-09-02T20:38:33.671Z,0.90
2022-09-02T20:41:36.250Z,0.77
2022-09-02T20:44:58.515Z,0.90
2022-09-02T20:48:04.758Z,0.82
2022-09-02T20:50:53.322Z,0.88
2022-09-02T20:54:06.033Z,0.90
2022-09-02T20:57:05.427Z,0.80
2022-09-02T21:00:12.820Z,0.75
2022-09-02T21:03:12.328Z,0.82
2022-09-02T21:05:53.004Z,0.80
2022-09-02T21:08:27.203Z,0.90
2022-09-02T21:11:00.319Z,0.90
2022-09-02T21:13:48.329Z,0.77
2022-09-02T21:16:49.683Z,0.80
2022-09-02T21:19:29.430Z,0.77
2022-09-02T21:22:30.787Z,1.30
2022-09-02T21:25:06.224Z,0.77
2022-09-02T21:27:45.447Z,0.90
2022-09-02T21:30:28.678Z,0.80
2022-09-02T21:33:02.597Z,0.80
2022-09-02T21:35:40.482Z,1.00
2022-09-02T21:38:17.562Z,0.80
2022-09-02T21:41:29.267Z,1.00
2022-09-02T21:44:28.355Z,0.88
2022-09-02T21:47:20.797Z,0.85
2022-09-02T21:50:42.937Z,0.70
2022-09-02T21:53:30.866Z,0.70
2022-09-02T21:56:07.232Z,0.70
2022-09-02T21:59:13.090Z,1.00
2022-09-02T22:02:08.180Z,0.73
2022-09-02T22:05:02.480Z,0.90
2022-09-02T22:08:00.050Z,0.70
2022-09-02T22:11:06.315Z,0.90
2022-09-02T22:13:37.858Z,0.85
2022-09-02T22:16:46.711Z,0.95
2022-09-02T22:19:20.494Z,0.80
2022-09-02T22:21:54.301Z,0.90
2022-09-02T22:24:31.284Z,1.20
2022-09-02T22:27:11.640Z,0.80
2022-09-02T22:30:04.373Z,0.77
2022-09-02T22:33:02.757Z,0.75
2022-09-02T22:35:48.658Z,0.85
2022-09-02T22:38:46.937Z,0.68
2022-09-02T22:41:24.836Z,0.73
2022-09-02T22:44:18.279Z,0.73
2022-09-02T22:47:22.707Z,0.85
2022-09-02T22:50:15.866Z,0.60
2022-09-02T22:52:57.357Z,0.80
2022-09-02T22:56:05.286Z,0.73
2022-09-02T22:59:07.730Z,0.77
2022-09-02T23:02:09.292Z,0.80
2022-09-02T23:05:03.570Z,0.98
2022-09-02T23:07:32.880Z,0.70
2022-09-02T23:10:05.860Z,0.80
2022-09-02T23:13:14.997Z,0.70
2022-09-02T23:16:17.018Z,0.82
2022-09-02T23:19:39.299Z,0.65
2022-09-02T23:22:42.081Z,0.70
2022-09-02T23:25:40.563Z,0.70
2022-09-02T23:28:18.052Z,0.80
2022-09-02T23:31:32.044Z,1.00
2022-09-02T23:35:14.717Z,0.70
2022-09-02T23:38:44.133Z,0.88
2022-09-02T23:41:15.576Z,0.80
2022-09-02T23:43:44.566Z,0.80
2022-09-02T23:46:25.187Z,0.77
2022-09-02T23:49:30.170Z,0.82
2022-09-02T23:52:33.472Z,0.80
2022-09-02T23:55:01.637Z,1.05
2022-09-02T23:58:05.953Z,0.57
